sensor_id;sensor_type;location;lat;lon;timestamp;temperature;humidity
3198;DHT22;1611;49.394;11.136;2023-12-29T00:00:11;8.90;64.20
3198;DHT22;1611;49.394;11.136;2023-12-29T00:02:37;8.90;64.50
3198;DHT22;1611;49.394;11.136;2023-12-29T00:05:06;8.90;64.50
3198;DHT22;1611;49.394;11.136;2023-12-29T00:07:33;8.90;64.60
3198;DHT22;1611;49.394;11.136;2023-12-29T00:10:00;9.00;64.40
3198;DHT22;1611;49.394;11.136;2023-12-29T00:12:27;8.90;64.50
3198;DHT22;1611;49.394;11.136;2023-12-29T00:14:53;8.90;65.00
3198;DHT22;1611;49.394;11.136;2023-12-29T00:17:20;9.00;64.70
3198;DHT22;1611;49.394;11.136;2023-12-29T00:19:47;8.90;65.00
3198;DHT22;1611;49.394;11.136;2023-12-29T00:22:15;8.90;65.30
3198;DHT22;1611;49.394;11.136;2023-12-29T00:24:41;9.00;65.50
3198;DHT22;1611;49.394;11.136;2023-12-29T00:27:08;9.00;65.10
3198;DHT22;1611;49.394;11.136;2023-12-29T00:29:35;9.00;65.20
3198;DHT22;1611;49.394;11.136;2023-12-29T00:32:02;9.00;65.20
3198;DHT22;1611;49.394;11.136;2023-12-29T00:34:30;9.00;65.40
3198;DHT22;1611;49.394;11.136;2023-12-29T00:36:56;8.90;65.90
3198;DHT22;1611;49.394;11.136;2023-12-29T00:39:24;8.90;66.20
3198;DHT22;1611;49.394;11.136;2023-12-29T00:41:54;8.90;66.30
3198;DHT22;1611;49.394;11.136;2023-12-29T00:44:21;8.90;66.40
3198;DHT22;1611;49.394;11.136;2023-12-29T00:46:49;8.90;66.50
3198;DHT22;1611;49.394;11.136;2023-12-29T00:49:15;8.90;66.60
3198;DHT22;1611;49.394;11.136;2023-12-29T00:51:43;8.80;66.80
3198;DHT22;1611;49.394;11.136;2023-12-29T00:54:10;8.80;67.20
3198;DHT22;1611;49.394;11.136;2023-12-29T00:56:38;8.80;67.00
3198;DHT22;1611;49.394;11.136;2023-12-29T00:59:05;8.80;67.40
3198;DHT22;1611;49.394;11.136;2023-12-29T01:01:33;8.80;67.80
3198;DHT22;1611;49.394;11.136;2023-12-29T01:04:00;8.80;67.40
3198;DHT22;1611;49.394;11.136;2023-12-29T01:06:27;8.90;67.30
3198;DHT22;1611;49.394;11.136;2023-12-29T01:08:54;8.90;67.30
3198;DHT22;1611;49.394;11.136;2023-12-29T01:11:21;8.90;67.20
3198;DHT22;1611;49.394;11.136;2023-12-29T01:13:49;8.70;68.30
3198;DHT22;1611;49.394;11.136;2023-12-29T01:16:15;8.70;68.40
3198;DHT22;1611;49.394;11.136;2023-12-29T01:18:42;8.80;68.20
3198;DHT22;1611;49.394;11.136;2023-12-29T01:21:09;8.90;68.00
3198;DHT22;1611;49.394;11.136;2023-12-29T01:23:35;8.90;67.80
3198;DHT22;1611;49.394;11.136;2023-12-29T01:26:02;8.90;67.60
3198;DHT22;1611;49.394;11.136;2023-12-29T01:28:29;8.90;66.80
3198;DHT22;1611;49.394;11.136;2023-12-29T01:30:57;8.90;67.50
3198;DHT22;1611;49.394;11.136;2023-12-29T01:33:24;8.90;67.80
3198;DHT22;1611;49.394;11.136;2023-12-29T01:35:50;8.90;68.10
3198;DHT22;1611;49.394;11.136;2023-12-29T01:38:17;8.80;68.00
3198;DHT22;1611;49.394;11.136;2023-12-29T01:40:44;8.70;68.20
3198;DHT22;1611;49.394;11.136;2023-12-29T01:43:11;8.60;68.10
3198;DHT22;1611;49.394;11.136;2023-12-29T01:45:37;8.70;68.10
3198;DHT22;1611;49.394;11.136;2023-12-29T01:48:07;8.50;67.60
3198;DHT22;1611;49.394;11.136;2023-12-29T01:50:34;8.50;67.40
3198;DHT22;1611;49.394;11.136;2023-12-29T01:53:01;8.50;67.40
3198;DHT22;1611;49.394;11.136;2023-12-29T01:55:30;8.50;67.40
3198;DHT22;1611;49.394;11.136;2023-12-29T01:57:58;8.40;67.30
3198;DHT22;1611;49.394;11.136;2023-12-29T02:00:25;8.40;67.60
3198;DHT22;1611;49.394;11.136;2023-12-29T02:02:52;8.50;67.10
3198;DHT22;1611;49.394;11.136;2023-12-29T02:05:20;8.40;67.10
3198;DHT22;1611;49.394;11.136;2023-12-29T02:07:51;8.30;67.30
3198;DHT22;1611;49.394;11.136;2023-12-29T02:10:19;8.30;67.60
3198;DHT22;1611;49.394;11.136;2023-12-29T02:12:47;8.30;67.00
3198;DHT22;1611;49.394;11.136;2023-12-29T02:15:15;8.30;67.00
3198;DHT22;1611;49.394;11.136;2023-12-29T02:17:45;8.40;66.80
3198;DHT22;1611;49.394;11.136;2023-12-29T02:20:14;8.30;66.80
3198;DHT22;1611;49.394;11.136;2023-12-29T02:22:42;8.40;66.70
3198;DHT22;1611;49.394;11.136;2023-12-29T02:25:10;8.40;66.50
3198;DHT22;1611;49.394;11.136;2023-12-29T02:27:43;8.50;65.40
3198;DHT22;1611;49.394;11.136;2023-12-29T02:30:18;8.50;65.40
3198;DHT22;1611;49.394;11.136;2023-12-29T02:32:48;8.50;64.90
3198;DHT22;1611;49.394;11.136;2023-12-29T02:35:19;8.60;64.60
3198;DHT22;1611;49.394;11.136;2023-12-29T02:37:47;8.70;64.50
3198;DHT22;1611;49.394;11.136;2023-12-29T02:40:15;8.60;64.10
3198;DHT22;1611;49.394;11.136;2023-12-29T02:42:46;8.70;63.90
3198;DHT22;1611;49.394;11.136;2023-12-29T02:45:13;8.70;63.60
3198;DHT22;1611;49.394;11.136;2023-12-29T02:47:41;8.70;64.20
3198;DHT22;1611;49.394;11.136;2023-12-29T02:50:08;8.80;63.40
3198;DHT22;1611;49.394;11.136;2023-12-29T02:52:35;8.80;63.10
3198;DHT22;1611;49.394;11.136;2023-12-29T02:55:02;8.80;62.80
3198;DHT22;1611;49.394;11.136;2023-12-29T02:57:30;8.70;62.50
3198;DHT22;1611;49.394;11.136;2023-12-29T02:59:57;8.70;62.40
3198;DHT22;1611;49.394;11.136;2023-12-29T03:02:24;8.80;62.50
3198;DHT22;1611;49.394;11.136;2023-12-29T03:04:51;8.80;62.60
3198;DHT22;1611;49.394;11.136;2023-12-29T03:07:18;8.80;62.40
3198;DHT22;1611;49.394;11.136;2023-12-29T03:09:44;8.80;62.60
3198;DHT22;1611;49.394;11.136;2023-12-29T03:12:11;8.80;62.30
3198;DHT22;1611;49.394;11.136;2023-12-29T03:14:39;8.70;62.50
3198;DHT22;1611;49.394;11.136;2023-12-29T03:17:06;8.70;62.50
3198;DHT22;1611;49.394;11.136;2023-12-29T03:19:33;8.70;62.50
3198;DHT22;1611;49.394;11.136;2023-12-29T03:21:59;8.60;62.40
3198;DHT22;1611;49.394;11.136;2023-12-29T03:24:28;8.50;62.90
3198;DHT22;1611;49.394;11.136;2023-12-29T03:26:55;8.40;63.20
3198;DHT22;1611;49.394;11.136;2023-12-29T03:29:21;8.30;63.80
3198;DHT22;1611;49.394;11.136;2023-12-29T03:31:49;8.30;64.20
3198;DHT22;1611;49.394;11.136;2023-12-29T03:34:16;8.20;64.40
3198;DHT22;1611;49.394;11.136;2023-12-29T03:36:43;8.10;65.00
3198;DHT22;1611;49.394;11.136;2023-12-29T03:39:09;8.10;65.40
3198;DHT22;1611;49.394;11.136;2023-12-29T03:41:36;8.10;65.30
3198;DHT22;1611;49.394;11.136;2023-12-29T03:44:03;8.10;65.20
3198;DHT22;1611;49.394;11.136;2023-12-29T03:46:31;8.10;65.20
3198;DHT22;1611;49.394;11.136;2023-12-29T03:48:59;8.00;65.60
3198;DHT22;1611;49.394;11.136;2023-12-29T03:51:26;8.00;65.90
3198;DHT22;1611;49.394;11.136;2023-12-29T03:53:53;7.90;65.80
3198;DHT22;1611;49.394;11.136;2023-12-29T03:56:19;7.90;66.00
3198;DHT22;1611;49.394;11.136;2023-12-29T03:58:46;7.90;66.00
3198;DHT22;1611;49.394;11.136;2023-12-29T04:01:14;7.80;65.80
3198;DHT22;1611;49.394;11.136;2023-12-29T04:03:42;7.70;66.30
3198;DHT22;1611;49.394;11.136;2023-12-29T04:06:10;7.70;66.40
3198;DHT22;1611;49.394;11.136;2023-12-29T04:08:37;7.60;66.10
3198;DHT22;1611;49.394;11.136;2023-12-29T04:11:05;7.50;66.80
3198;DHT22;1611;49.394;11.136;2023-12-29T04:13:32;7.50;66.70
3198;DHT22;1611;49.394;11.136;2023-12-29T04:15:58;7.40;67.40
3198;DHT22;1611;49.394;11.136;2023-12-29T04:18:25;7.50;68.30
3198;DHT22;1611;49.394;11.136;2023-12-29T04:20:52;7.50;68.10
3198;DHT22;1611;49.394;11.136;2023-12-29T04:23:20;7.40;67.80
3198;DHT22;1611;49.394;11.136;2023-12-29T04:25:46;7.40;67.90
3198;DHT22;1611;49.394;11.136;2023-12-29T04:28:13;7.40;67.70
3198;DHT22;1611;49.394;11.136;2023-12-29T04:30:40;7.40;67.90
3198;DHT22;1611;49.394;11.136;2023-12-29T04:33:07;7.40;67.70
3198;DHT22;1611;49.394;11.136;2023-12-29T04:35:33;7.40;67.80
3198;DHT22;1611;49.394;11.136;2023-12-29T04:38:00;7.30;68.10
3198;DHT22;1611;49.394;11.136;2023-12-29T04:40:28;7.20;68.30
3198;DHT22;1611;49.394;11.136;2023-12-29T04:42:55;7.20;68.70
3198;DHT22;1611;49.394;11.136;2023-12-29T04:45:21;7.10;68.70
3198;DHT22;1611;49.394;11.136;2023-12-29T04:47:48;7.10;69.20
3198;DHT22;1611;49.394;11.136;2023-12-29T04:50:15;7.00;69.10
3198;DHT22;1611;49.394;11.136;2023-12-29T04:52:42;7.00;69.30
3198;DHT22;1611;49.394;11.136;2023-12-29T04:55:09;6.90;69.70
3198;DHT22;1611;49.394;11.136;2023-12-29T04:57:37;6.90;70.30
3198;DHT22;1611;49.394;11.136;2023-12-29T05:00:04;6.80;70.60
3198;DHT22;1611;49.394;11.136;2023-12-29T05:02:31;6.80;70.90
3198;DHT22;1611;49.394;11.136;2023-12-29T05:04:58;6.90;71.00
3198;DHT22;1611;49.394;11.136;2023-12-29T05:07:24;6.80;71.10
3198;DHT22;1611;49.394;11.136;2023-12-29T05:09:52;6.80;71.40
3198;DHT22;1611;49.394;11.136;2023-12-29T05:12:19;6.80;72.00
3198;DHT22;1611;49.394;11.136;2023-12-29T05:14:47;6.80;72.20
3198;DHT22;1611;49.394;11.136;2023-12-29T05:17:13;6.80;72.40
3198;DHT22;1611;49.394;11.136;2023-12-29T05:19:40;6.80;72.30
3198;DHT22;1611;49.394;11.136;2023-12-29T05:22:07;6.80;73.10
3198;DHT22;1611;49.394;11.136;2023-12-29T05:24:34;6.70;72.50
3198;DHT22;1611;49.394;11.136;2023-12-29T05:27:00;6.80;72.00
3198;DHT22;1611;49.394;11.136;2023-12-29T05:29:27;6.90;72.00
3198;DHT22;1611;49.394;11.136;2023-12-29T05:31:55;6.90;71.60
3198;DHT22;1611;49.394;11.136;2023-12-29T05:34:22;6.80;71.50
3198;DHT22;1611;49.394;11.136;2023-12-29T05:36:48;6.80;71.50
3198;DHT22;1611;49.394;11.136;2023-12-29T05:39:15;6.80;71.70
3198;DHT22;1611;49.394;11.136;2023-12-29T05:41:42;6.80;72.10
3198;DHT22;1611;49.394;11.136;2023-12-29T05:44:08;6.80;72.10
3198;DHT22;1611;49.394;11.136;2023-12-29T05:46:35;6.90;71.90
3198;DHT22;1611;49.394;11.136;2023-12-29T05:49:03;6.90;71.90
3198;DHT22;1611;49.394;11.136;2023-12-29T05:51:30;7.00;71.80
3198;DHT22;1611;49.394;11.136;2023-12-29T05:53:57;7.00;72.00
3198;DHT22;1611;49.394;11.136;2023-12-29T05:56:23;7.10;71.70
3198;DHT22;1611;49.394;11.136;2023-12-29T05:58:50;7.10;71.50
3198;DHT22;1611;49.394;11.136;2023-12-29T06:01:17;7.20;71.40
3198;DHT22;1611;49.394;11.136;2023-12-29T06:03:43;7.20;71.00
3198;DHT22;1611;49.394;11.136;2023-12-29T06:06:11;7.20;71.10
3198;DHT22;1611;49.394;11.136;2023-12-29T06:08:38;7.20;70.90
3198;DHT22;1611;49.394;11.136;2023-12-29T06:11:05;7.30;70.60
3198;DHT22;1611;49.394;11.136;2023-12-29T06:13:31;7.20;70.20
3198;DHT22;1611;49.394;11.136;2023-12-29T06:15:58;7.10;70.00
3198;DHT22;1611;49.394;11.136;2023-12-29T06:18:25;7.10;70.10
3198;DHT22;1611;49.394;11.136;2023-12-29T06:20:52;7.00;70.20
3198;DHT22;1611;49.394;11.136;2023-12-29T06:23:20;7.10;70.70
3198;DHT22;1611;49.394;11.136;2023-12-29T06:25:46;7.00;70.50
3198;DHT22;1611;49.394;11.136;2023-12-29T06:28:13;6.90;71.00
3198;DHT22;1611;49.394;11.136;2023-12-29T06:30:40;7.00;70.90
3198;DHT22;1611;49.394;11.136;2023-12-29T06:33:06;7.00;71.00
3198;DHT22;1611;49.394;11.136;2023-12-29T06:35:33;7.00;70.70
3198;DHT22;1611;49.394;11.136;2023-12-29T06:38:00;6.90;70.40
3198;DHT22;1611;49.394;11.136;2023-12-29T06:40:28;6.90;70.30
3198;DHT22;1611;49.394;11.136;2023-12-29T06:42:54;6.90;70.60
3198;DHT22;1611;49.394;11.136;2023-12-29T06:45:21;7.00;70.70
3198;DHT22;1611;49.394;11.136;2023-12-29T06:47:48;7.00;70.30
3198;DHT22;1611;49.394;11.136;2023-12-29T06:50:16;6.90;70.40
3198;DHT22;1611;49.394;11.136;2023-12-29T06:52:42;7.00;70.00
3198;DHT22;1611;49.394;11.136;2023-12-29T06:55:09;7.00;70.00
3198;DHT22;1611;49.394;11.136;2023-12-29T06:57:37;7.00;70.70
3198;DHT22;1611;49.394;11.136;2023-12-29T07:00:05;7.00;70.20
3198;DHT22;1611;49.394;11.136;2023-12-29T07:02:33;7.00;70.00
3198;DHT22;1611;49.394;11.136;2023-12-29T07:04:59;6.80;70.40
3198;DHT22;1611;49.394;11.136;2023-12-29T07:07:26;6.90;70.90
3198;DHT22;1611;49.394;11.136;2023-12-29T07:09:53;6.90;71.20
3198;DHT22;1611;49.394;11.136;2023-12-29T07:12:20;7.00;70.70
3198;DHT22;1611;49.394;11.136;2023-12-29T07:14:48;7.00;70.70
3198;DHT22;1611;49.394;11.136;2023-12-29T07:17:14;7.00;70.80
3198;DHT22;1611;49.394;11.136;2023-12-29T07:19:41;7.30;71.20
3198;DHT22;1611;49.394;11.136;2023-12-29T07:22:08;7.10;70.90
3198;DHT22;1611;49.394;11.136;2023-12-29T07:24:35;7.10;71.50
3198;DHT22;1611;49.394;11.136;2023-12-29T07:27:02;7.20;71.40
3198;DHT22;1611;49.394;11.136;2023-12-29T07:29:29;7.20;71.50
3198;DHT22;1611;49.394;11.136;2023-12-29T07:31:57;7.30;71.40
3198;DHT22;1611;49.394;11.136;2023-12-29T07:34:24;7.40;71.00
3198;DHT22;1611;49.394;11.136;2023-12-29T07:36:51;7.30;70.80
3198;DHT22;1611;49.394;11.136;2023-12-29T07:39:18;7.40;71.10
3198;DHT22;1611;49.394;11.136;2023-12-29T07:41:45;7.50;71.20
3198;DHT22;1611;49.394;11.136;2023-12-29T07:44:14;7.50;70.60
3198;DHT22;1611;49.394;11.136;2023-12-29T07:46:40;7.70;70.00
3198;DHT22;1611;49.394;11.136;2023-12-29T07:49:08;7.70;69.90
3198;DHT22;1611;49.394;11.136;2023-12-29T07:51:39;7.70;70.10
3198;DHT22;1611;49.394;11.136;2023-12-29T07:54:05;7.80;70.50
3198;DHT22;1611;49.394;11.136;2023-12-29T07:56:32;7.90;70.50
3198;DHT22;1611;49.394;11.136;2023-12-29T07:58:59;7.80;70.40
3198;DHT22;1611;49.394;11.136;2023-12-29T08:01:26;7.90;71.10
3198;DHT22;1611;49.394;11.136;2023-12-29T08:03:52;7.90;70.40
3198;DHT22;1611;49.394;11.136;2023-12-29T08:06:21;7.90;70.70
3198;DHT22;1611;49.394;11.136;2023-12-29T08:08:48;8.00;71.00
3198;DHT22;1611;49.394;11.136;2023-12-29T08:11:15;8.00;70.50
3198;DHT22;1611;49.394;11.136;2023-12-29T08:13:43;8.20;70.10
3198;DHT22;1611;49.394;11.136;2023-12-29T08:16:10;8.20;69.40
3198;DHT22;1611;49.394;11.136;2023-12-29T08:18:37;8.30;69.20
3198;DHT22;1611;49.394;11.136;2023-12-29T08:21:04;8.30;69.30
3198;DHT22;1611;49.394;11.136;2023-12-29T08:23:32;8.40;69.10
3198;DHT22;1611;49.394;11.136;2023-12-29T08:25:59;8.40;69.90
3198;DHT22;1611;49.394;11.136;2023-12-29T08:28:26;8.60;68.40
3198;DHT22;1611;49.394;11.136;2023-12-29T08:30:52;8.60;68.10
3198;DHT22;1611;49.394;11.136;2023-12-29T08:33:19;8.60;67.50
3198;DHT22;1611;49.394;11.136;2023-12-29T08:35:46;8.70;68.00
3198;DHT22;1611;49.394;11.136;2023-12-29T08:38:13;8.80;68.10
3198;DHT22;1611;49.394;11.136;2023-12-29T08:40:41;8.90;67.90
3198;DHT22;1611;49.394;11.136;2023-12-29T08:43:08;9.00;68.40
3198;DHT22;1611;49.394;11.136;2023-12-29T08:45:35;9.00;67.30
3198;DHT22;1611;49.394;11.136;2023-12-29T08:48:02;9.10;67.00
3198;DHT22;1611;49.394;11.136;2023-12-29T08:50:29;9.20;66.30
3198;DHT22;1611;49.394;11.136;2023-12-29T08:52:56;9.20;66.20
3198;DHT22;1611;49.394;11.136;2023-12-29T08:55:23;9.30;66.00
3198;DHT22;1611;49.394;11.136;2023-12-29T08:57:51;9.30;66.10
3198;DHT22;1611;49.394;11.136;2023-12-29T09:00:17;9.40;65.20
3198;DHT22;1611;49.394;11.136;2023-12-29T09:02:44;9.40;65.90
3198;DHT22;1611;49.394;11.136;2023-12-29T09:05:12;9.50;65.50
3198;DHT22;1611;49.394;11.136;2023-12-29T09:07:39;9.50;65.30
3198;DHT22;1611;49.394;11.136;2023-12-29T09:10:06;9.60;65.00
3198;DHT22;1611;49.394;11.136;2023-12-29T09:12:36;9.60;65.00
3198;DHT22;1611;49.394;11.136;2023-12-29T09:15:05;9.70;64.80
3198;DHT22;1611;49.394;11.136;2023-12-29T09:17:32;9.60;64.20
3198;DHT22;1611;49.394;11.136;2023-12-29T09:19:59;9.70;64.60
3198;DHT22;1611;49.394;11.136;2023-12-29T09:22:26;9.70;64.50
3198;DHT22;1611;49.394;11.136;2023-12-29T09:24:53;9.80;65.10
3198;DHT22;1611;49.394;11.136;2023-12-29T09:27:20;9.90;65.20
3198;DHT22;1611;49.394;11.136;2023-12-29T09:29:47;9.80;64.70
3198;DHT22;1611;49.394;11.136;2023-12-29T09:32:15;9.90;65.00
3198;DHT22;1611;49.394;11.136;2023-12-29T09:34:42;10.10;65.00
3198;DHT22;1611;49.394;11.136;2023-12-29T09:37:09;10.20;64.70
3198;DHT22;1611;49.394;11.136;2023-12-29T09:39:36;10.20;64.50
3198;DHT22;1611;49.394;11.136;2023-12-29T09:42:03;10.20;63.90
3198;DHT22;1611;49.394;11.136;2023-12-29T09:44:32;10.20;63.00
3198;DHT22;1611;49.394;11.136;2023-12-29T09:47:03;10.20;63.30
3198;DHT22;1611;49.394;11.136;2023-12-29T09:49:37;10.20;62.50
3198;DHT22;1611;49.394;11.136;2023-12-29T09:52:06;10.20;61.80
3198;DHT22;1611;49.394;11.136;2023-12-29T09:54:33;10.20;61.80
3198;DHT22;1611;49.394;11.136;2023-12-29T09:57:02;10.20;62.00
3198;DHT22;1611;49.394;11.136;2023-12-29T09:59:32;10.20;61.90
3198;DHT22;1611;49.394;11.136;2023-12-29T10:02:02;10.30;61.90
3198;DHT22;1611;49.394;11.136;2023-12-29T10:04:31;10.30;61.50
3198;DHT22;1611;49.394;11.136;2023-12-29T10:07:02;10.30;61.30
3198;DHT22;1611;49.394;11.136;2023-12-29T10:09:33;10.20;60.20
3198;DHT22;1611;49.394;11.136;2023-12-29T10:12:02;10.20;60.80
3198;DHT22;1611;49.394;11.136;2023-12-29T10:14:36;10.10;62.20
3198;DHT22;1611;49.394;11.136;2023-12-29T10:17:09;10.10;62.70
3198;DHT22;1611;49.394;11.136;2023-12-29T10:19:40;10.00;63.20
3198;DHT22;1611;49.394;11.136;2023-12-29T10:22:11;10.10;63.80
3198;DHT22;1611;49.394;11.136;2023-12-29T10:24:40;10.10;63.80
3198;DHT22;1611;49.394;11.136;2023-12-29T10:27:09;10.00;64.40
3198;DHT22;1611;49.394;11.136;2023-12-29T10:29:36;10.00;64.60
3198;DHT22;1611;49.394;11.136;2023-12-29T10:32:03;10.00;65.20
3198;DHT22;1611;49.394;11.136;2023-12-29T10:34:30;10.00;65.60
3198;DHT22;1611;49.394;11.136;2023-12-29T10:36:59;10.10;66.10
3198;DHT22;1611;49.394;11.136;2023-12-29T10:39:26;10.10;66.40
3198;DHT22;1611;49.394;11.136;2023-12-29T10:42:03;10.20;66.30
3198;DHT22;1611;49.394;11.136;2023-12-29T10:44:31;10.10;66.20
3198;DHT22;1611;49.394;11.136;2023-12-29T10:46:58;10.20;66.50
3198;DHT22;1611;49.394;11.136;2023-12-29T10:49:25;10.40;66.60
3198;DHT22;1611;49.394;11.136;2023-12-29T10:51:51;10.50;66.80
3198;DHT22;1611;49.394;11.136;2023-12-29T10:54:20;10.70;66.30
3198;DHT22;1611;49.394;11.136;2023-12-29T10:57:00;10.90;65.30
3198;DHT22;1611;49.394;11.136;2023-12-29T10:59:28;11.00;65.20
3198;DHT22;1611;49.394;11.136;2023-12-29T11:01:56;11.10;64.00
3198;DHT22;1611;49.394;11.136;2023-12-29T11:04:23;11.20;62.70
3198;DHT22;1611;49.394;11.136;2023-12-29T11:06:49;11.50;62.60
3198;DHT22;1611;49.394;11.136;2023-12-29T11:09:27;11.60;61.20
3198;DHT22;1611;49.394;11.136;2023-12-29T11:11:55;11.80;61.80
3198;DHT22;1611;49.394;11.136;2023-12-29T11:14:23;12.00;61.20
3198;DHT22;1611;49.394;11.136;2023-12-29T11:16:51;12.20;60.10
3198;DHT22;1611;49.394;11.136;2023-12-29T11:19:19;12.30;58.80
3198;DHT22;1611;49.394;11.136;2023-12-29T11:21:48;12.30;57.60
3198;DHT22;1611;49.394;11.136;2023-12-29T11:24:17;12.30;57.50
3198;DHT22;1611;49.394;11.136;2023-12-29T11:26:45;12.10;56.70
3198;DHT22;1611;49.394;11.136;2023-12-29T11:29:12;12.00;57.90
3198;DHT22;1611;49.394;11.136;2023-12-29T11:31:39;11.80;58.30
3198;DHT22;1611;49.394;11.136;2023-12-29T11:34:10;11.70;58.70
3198;DHT22;1611;49.394;11.136;2023-12-29T11:36:41;11.70;59.10
3198;DHT22;1611;49.394;11.136;2023-12-29T11:39:24;11.70;59.70
3198;DHT22;1611;49.394;11.136;2023-12-29T11:42:03;12.10;58.90
3198;DHT22;1611;49.394;11.136;2023-12-29T11:44:32;12.30;57.00
3198;DHT22;1611;49.394;11.136;2023-12-29T11:46:59;12.40;56.50
3198;DHT22;1611;49.394;11.136;2023-12-29T11:49:26;12.60;54.80
3198;DHT22;1611;49.394;11.136;2023-12-29T11:51:53;12.60;53.80
3198;DHT22;1611;49.394;11.136;2023-12-29T11:54:23;12.60;51.90
3198;DHT22;1611;49.394;11.136;2023-12-29T11:56:50;12.80;52.50
3198;DHT22;1611;49.394;11.136;2023-12-29T11:59:19;13.10;51.90
3198;DHT22;1611;49.394;11.136;2023-12-29T12:01:47;13.30;50.40
3198;DHT22;1611;49.394;11.136;2023-12-29T12:04:33;13.60;49.20
3198;DHT22;1611;49.394;11.136;2023-12-29T12:07:01;13.50;47.60
3198;DHT22;1611;49.394;11.136;2023-12-29T12:09:27;13.50;48.20
3198;DHT22;1611;49.394;11.136;2023-12-29T12:11:54;13.30;48.40
3198;DHT22;1611;49.394;11.136;2023-12-29T12:14:45;12.90;49.10
3198;DHT22;1611;49.394;11.136;2023-12-29T12:17:26;12.70;50.90
3198;DHT22;1611;49.394;11.136;2023-12-29T12:19:57;12.60;52.00
3198;DHT22;1611;49.394;11.136;2023-12-29T12:22:24;12.50;52.00
3198;DHT22;1611;49.394;11.136;2023-12-29T12:24:55;12.40;52.30
3198;DHT22;1611;49.394;11.136;2023-12-29T12:27:23;12.10;53.40
3198;DHT22;1611;49.394;11.136;2023-12-29T12:29:54;12.00;54.80
3198;DHT22;1611;49.394;11.136;2023-12-29T12:32:25;12.00;55.00
3198;DHT22;1611;49.394;11.136;2023-12-29T12:34:52;11.80;53.80
3198;DHT22;1611;49.394;11.136;2023-12-29T12:37:20;11.70;54.90
3198;DHT22;1611;49.394;11.136;2023-12-29T12:39:47;11.80;55.10
3198;DHT22;1611;49.394;11.136;2023-12-29T12:42:14;11.90;54.90
3198;DHT22;1611;49.394;11.136;2023-12-29T12:44:47;12.00;54.30
3198;DHT22;1611;49.394;11.136;2023-12-29T12:47:22;12.20;54.70
3198;DHT22;1611;49.394;11.136;2023-12-29T12:49:50;12.30;53.80
3198;DHT22;1611;49.394;11.136;2023-12-29T12:52:17;12.40;51.80
3198;DHT22;1611;49.394;11.136;2023-12-29T12:54:44;12.50;50.70
3198;DHT22;1611;49.394;11.136;2023-12-29T12:57:11;12.70;50.70
3198;DHT22;1611;49.394;11.136;2023-12-29T12:59:38;12.90;50.30
3198;DHT22;1611;49.394;11.136;2023-12-29T13:02:05;13.20;48.90
3198;DHT22;1611;49.394;11.136;2023-12-29T13:04:35;13.30;47.90
3198;DHT22;1611;49.394;11.136;2023-12-29T13:07:02;13.40;46.70
3198;DHT22;1611;49.394;11.136;2023-12-29T13:09:29;13.50;44.60
3198;DHT22;1611;49.394;11.136;2023-12-29T13:12:08;13.30;45.00
3198;DHT22;1611;49.394;11.136;2023-12-29T13:14:34;13.30;43.90
3198;DHT22;1611;49.394;11.136;2023-12-29T13:17:06;13.30;43.90
3198;DHT22;1611;49.394;11.136;2023-12-29T13:19:32;13.30;43.90
3198;DHT22;1611;49.394;11.136;2023-12-29T13:22:03;13.20;42.50
3198;DHT22;1611;49.394;11.136;2023-12-29T13:24:32;13.10;42.10
3198;DHT22;1611;49.394;11.136;2023-12-29T13:27:04;13.10;40.40
3198;DHT22;1611;49.394;11.136;2023-12-29T13:29:31;13.00;41.40
3198;DHT22;1611;49.394;11.136;2023-12-29T13:32:00;12.90;40.70
3198;DHT22;1611;49.394;11.136;2023-12-29T13:34:33;12.70;40.30
3198;DHT22;1611;49.394;11.136;2023-12-29T13:37:07;12.40;41.40
3198;DHT22;1611;49.394;11.136;2023-12-29T13:39:39;12.30;40.40
3198;DHT22;1611;49.394;11.136;2023-12-29T13:42:09;12.20;41.40
3198;DHT22;1611;49.394;11.136;2023-12-29T13:44:39;12.10;40.60
3198;DHT22;1611;49.394;11.136;2023-12-29T13:47:07;12.00;41.50
3198;DHT22;1611;49.394;11.136;2023-12-29T13:49:34;12.00;41.00
3198;DHT22;1611;49.394;11.136;2023-12-29T13:52:03;11.90;42.00
3198;DHT22;1611;49.394;11.136;2023-12-29T13:54:31;11.80;41.40
3198;DHT22;1611;49.394;11.136;2023-12-29T13:57:06;11.70;41.10
3198;DHT22;1611;49.394;11.136;2023-12-29T13:59:33;11.80;41.70
3198;DHT22;1611;49.394;11.136;2023-12-29T14:04:46;11.80;41.40
3198;DHT22;1611;49.394;11.136;2023-12-29T14:07:14;11.90;42.70
3198;DHT22;1611;49.394;11.136;2023-12-29T14:09:41;11.90;46.90
3198;DHT22;1611;49.394;11.136;2023-12-29T14:12:08;11.90;42.60
3198;DHT22;1611;49.394;11.136;2023-12-29T14:14:35;11.90;44.80
3198;DHT22;1611;49.394;11.136;2023-12-29T14:17:01;12.00;43.50
3198;DHT22;1611;49.394;11.136;2023-12-29T14:19:34;12.00;44.40
3198;DHT22;1611;49.394;11.136;2023-12-29T14:22:01;11.90;43.00
3198;DHT22;1611;49.394;11.136;2023-12-29T14:24:29;11.90;43.40
3198;DHT22;1611;49.394;11.136;2023-12-29T14:26:56;11.80;43.20
3198;DHT22;1611;49.394;11.136;2023-12-29T14:29:25;11.70;44.30
3198;DHT22;1611;49.394;11.136;2023-12-29T14:31:52;11.70;45.70
3198;DHT22;1611;49.394;11.136;2023-12-29T14:34:20;11.70;47.10
3198;DHT22;1611;49.394;11.136;2023-12-29T14:36:46;11.60;46.80
3198;DHT22;1611;49.394;11.136;2023-12-29T14:39:13;11.60;46.10
3198;DHT22;1611;49.394;11.136;2023-12-29T14:41:42;11.60;45.10
3198;DHT22;1611;49.394;11.136;2023-12-29T14:44:09;11.60;46.00
3198;DHT22;1611;49.394;11.136;2023-12-29T14:46:36;11.60;47.20
3198;DHT22;1611;49.394;11.136;2023-12-29T14:49:03;11.50;48.20
3198;DHT22;1611;49.394;11.136;2023-12-29T14:51:30;11.40;48.40
3198;DHT22;1611;49.394;11.136;2023-12-29T14:53:57;11.40;48.70
3198;DHT22;1611;49.394;11.136;2023-12-29T14:56:24;11.40;48.90
3198;DHT22;1611;49.394;11.136;2023-12-29T14:58:52;11.30;50.50
3198;DHT22;1611;49.394;11.136;2023-12-29T15:01:19;11.30;50.60
3198;DHT22;1611;49.394;11.136;2023-12-29T15:03:45;11.30;51.80
3198;DHT22;1611;49.394;11.136;2023-12-29T15:06:12;11.20;49.50
3198;DHT22;1611;49.394;11.136;2023-12-29T15:08:39;11.10;51.00
3198;DHT22;1611;49.394;11.136;2023-12-29T15:11:06;11.00;48.30
3198;DHT22;1611;49.394;11.136;2023-12-29T15:13:33;11.00;48.30
3198;DHT22;1611;49.394;11.136;2023-12-29T15:16:02;11.00;47.40
3198;DHT22;1611;49.394;11.136;2023-12-29T15:18:29;11.00;46.50
3198;DHT22;1611;49.394;11.136;2023-12-29T15:20:56;11.00;45.60
3198;DHT22;1611;49.394;11.136;2023-12-29T15:23:23;11.00;45.80
3198;DHT22;1611;49.394;11.136;2023-12-29T15:25:50;11.00;46.60
3198;DHT22;1611;49.394;11.136;2023-12-29T15:28:17;11.00;47.00
3198;DHT22;1611;49.394;11.136;2023-12-29T15:30:44;11.00;47.20
3198;DHT22;1611;49.394;11.136;2023-12-29T15:33:12;10.90;46.90
3198;DHT22;1611;49.394;11.136;2023-12-29T15:35:39;10.80;47.20
3198;DHT22;1611;49.394;11.136;2023-12-29T15:38:06;11.00;48.80
3198;DHT22;1611;49.394;11.136;2023-12-29T15:40:33;10.90;49.00
3198;DHT22;1611;49.394;11.136;2023-12-29T15:43:00;10.80;49.20
3198;DHT22;1611;49.394;11.136;2023-12-29T15:45:29;10.70;50.50
3198;DHT22;1611;49.394;11.136;2023-12-29T15:47:56;10.60;51.40
3198;DHT22;1611;49.394;11.136;2023-12-29T15:50:24;10.60;52.00
3198;DHT22;1611;49.394;11.136;2023-12-29T15:52:50;10.50;52.10
3198;DHT22;1611;49.394;11.136;2023-12-29T15:55:17;10.40;53.00
3198;DHT22;1611;49.394;11.136;2023-12-29T15:57:44;10.30;53.60
3198;DHT22;1611;49.394;11.136;2023-12-29T16:00:12;10.20;53.90